sensor_id;sensor_type;location;lat;lon;timestamp;pressure;altitude;pressure_sealevel;temperature;humidity
10852;BME280;5479;52.046;6.314;2023-04-08T00:02:20;102156.34;;;5.33;100.00
10852;BME280;5479;52.046;6.314;2023-04-08T00:04:48;102160.81;;;5.28;100.00
10852;BME280;5479;52.046;6.314;2023-04-08T00:07:16;102159.09;;;5.27;100.00
10852;BME280;5479;52.046;6.314;2023-04-08T00:09:44;102159.28;;;5.15;100.00
10852;BME280;5479;52.046;6.314;2023-04-08T00:12:12;102166.28;;;5.16;100.00
10852;BME280;5479;52.046;6.314;2023-04-08T00:14:41;102169.84;;;5.10;100.00
10852;BME280;5479;52.046;6.314;2023-04-08T00:17:10;102175.16;;;5.06;100.00
10852;BME280;5479;52.046;6.314;2023-04-08T00:19:38;102180.47;;;5.03;100.00
10852;BME280;5479;52.046;6.314;2023-04-08T00:22:06;102177.06;;;4.96;100.00
10852;BME280;5479;52.046;6.314;2023-04-08T00:24:35;102176.16;;;4.99;100.00
10852;BME280;5479;52.046;6.314;2023-04-08T00:27:06;102172.78;;;4.89;100.00
10852;BME280;5479;52.046;6.314;2023-04-08T00:29:35;102175.34;;;4.94;100.00
10852;BME280;5479;52.046;6.314;2023-04-08T00:32:05;102175.47;;;4.84;100.00
10852;BME280;5479;52.046;6.314;2023-04-08T00:34:38;102169.31;;;4.87;100.00
10852;BME280;5479;52.046;6.314;2023-04-08T00:37:08;102170.19;;;4.87;100.00
10852;BME280;5479;52.046;6.314;2023-04-08T00:39:37;102179.00;;;4.83;100.00
10852;BME280;5479;52.046;6.314;2023-04-08T00:42:05;102179.06;;;4.77;100.00
10852;BME280;5479;52.046;6.314;2023-04-08T00:44:34;102180.03;;;4.73;100.00
10852;BME280;5479;52.046;6.314;2023-04-08T00:47:03;102179.22;;;4.67;100.00
10852;BME280;5479;52.046;6.314;2023-04-08T00:49:32;102187.16;;;4.62;100.00
10852;BME280;5479;52.046;6.314;2023-04-08T00:52:00;102185.34;;;4.66;100.00
10852;BME280;5479;52.046;6.314;2023-04-08T00:54:29;102192.50;;;4.53;100.00
10852;BME280;5479;52.046;6.314;2023-04-08T00:56:58;102197.00;;;4.42;100.00
10852;BME280;5479;52.046;6.314;2023-04-08T00:59:28;102193.59;;;4.34;100.00
10852;BME280;5479;52.046;6.314;2023-04-08T01:02:00;102198.06;;;4.28;100.00
10852;BME280;5479;52.046;6.314;2023-04-08T01:04:39;102198.88;;;4.31;100.00
10852;BME280;5479;52.046;6.314;2023-04-08T01:07:17;102195.44;;;4.26;100.00
10852;BME280;5479;52.046;6.314;2023-04-08T01:09:49;102201.63;;;4.22;100.00
10852;BME280;5479;52.046;6.314;2023-04-08T01:12:23;102202.44;;;4.25;100.00
10852;BME280;5479;52.046;6.314;2023-04-08T01:14:58;102214.75;;;4.19;100.00
10852;BME280;5479;52.046;6.314;2023-04-08T01:17:28;102216.56;;;4.14;100.00
10852;BME280;5479;52.046;6.314;2023-04-08T01:20:00;102210.53;;;4.06;100.00
10852;BME280;5479;52.046;6.314;2023-04-08T01:22:39;102208.91;;;3.91;100.00
10852;BME280;5479;52.046;6.314;2023-04-08T01:25:16;102218.66;;;3.79;100.00
10852;BME280;5479;52.046;6.314;2023-04-08T01:27:48;102215.22;;;3.74;100.00
10852;BME280;5479;52.046;6.314;2023-04-08T01:30:18;102209.94;;;3.77;100.00
10852;BME280;5479;52.046;6.314;2023-04-08T01:32:54;102213.47;;;3.73;100.00
10852;BME280;5479;52.046;6.314;2023-04-08T01:35:22;102213.47;;;3.70;100.00
10852;BME280;5479;52.046;6.314;2023-04-08T01:37:51;102217.91;;;3.64;100.00
10852;BME280;5479;52.046;6.314;2023-04-08T01:40:21;102215.31;;;3.63;100.00
10852;BME280;5479;52.046;6.314;2023-04-08T01:42:53;102208.38;;;3.57;100.00
10852;BME280;5479;52.046;6.314;2023-04-08T01:45:21;102213.59;;;3.56;100.00
10852;BME280;5479;52.046;6.314;2023-04-08T01:47:50;102213.69;;;3.45;100.00
10852;BME280;5479;52.046;6.314;2023-04-08T01:50:20;102220.78;;;3.34;100.00
10852;BME280;5479;52.046;6.314;2023-04-08T01:52:50;102228.63;;;3.30;100.00
10852;BME280;5479;52.046;6.314;2023-04-08T01:55:20;102226.06;;;3.22;100.00
10852;BME280;5479;52.046;6.314;2023-04-08T01:57:51;102213.84;;;3.21;100.00
10852;BME280;5479;52.046;6.314;2023-04-08T02:00:25;102213.84;;;3.24;100.00
10852;BME280;5479;52.046;6.314;2023-04-08T02:02:54;102225.22;;;3.19;100.00
10852;BME280;5479;52.046;6.314;2023-04-08T02:05:22;102226.09;;;3.19;100.00
10852;BME280;5479;52.046;6.314;2023-04-08T02:07:58;102227.88;;;3.11;100.00
10852;BME280;5479;52.046;6.314;2023-04-08T02:10:26;102224.41;;;3.12;100.00
10852;BME280;5479;52.046;6.314;2023-04-08T02:12:56;102225.25;;;3.16;100.00
10852;BME280;5479;52.046;6.314;2023-04-08T02:15:25;102213.00;;;3.19;100.00
10852;BME280;5479;52.046;6.314;2023-04-08T02:18:00;102222.69;;;3.10;100.00
10852;BME280;5479;52.046;6.314;2023-04-08T02:20:36;102222.66;;;3.08;100.00
10852;BME280;5479;52.046;6.314;2023-04-08T02:23:09;102232.28;;;3.08;100.00
10852;BME280;5479;52.046;6.314;2023-04-08T02:25:43;102234.91;;;3.06;100.00
10852;BME280;5479;52.046;6.314;2023-04-08T02:28:19;102232.31;;;3.00;100.00
10852;BME280;5479;52.046;6.314;2023-04-08T02:30:49;102234.91;;;3.06;100.00
10852;BME280;5479;52.046;6.314;2023-04-08T02:33:19;102227.97;;;3.02;100.00
10852;BME280;5479;52.046;6.314;2023-04-08T02:35:52;102232.34;;;2.92;100.00
10852;BME280;5479;52.046;6.314;2023-04-08T02:38:21;102234.88;;;3.09;100.00
10852;BME280;5479;52.046;6.314;2023-04-08T02:40:50;102235.78;;;3.03;100.00
10852;BME280;5479;52.046;6.314;2023-04-08T02:43:20;102233.13;;;3.08;100.00
10852;BME280;5479;52.046;6.314;2023-04-08T02:45:52;102240.97;;;3.16;100.00
10852;BME280;5479;52.046;6.314;2023-04-08T02:48:20;102247.94;;;3.11;100.00
10852;BME280;5479;52.046;6.314;2023-04-08T02:50:48;102239.28;;;3.04;100.00
10852;BME280;5479;52.046;6.314;2023-04-08T02:53:17;102242.81;;;2.95;100.00
10852;BME280;5479;52.046;6.314;2023-04-08T02:55:45;102242.03;;;2.80;100.00
10852;BME280;5479;52.046;6.314;2023-04-08T02:58:13;102243.81;;;2.72;100.00
10852;BME280;5479;52.046;6.314;2023-04-08T03:00:45;102247.25;;;2.77;100.00
10852;BME280;5479;52.046;6.314;2023-04-08T03:03:14;102252.47;;;2.86;100.00
10852;BME280;5479;52.046;6.314;2023-04-08T03:05:42;102249.88;;;2.80;100.00
10852;BME280;5479;52.046;6.314;2023-04-08T03:08:12;102251.59;;;2.79;100.00
10852;BME280;5479;52.046;6.314;2023-04-08T03:10:41;102262.94;;;2.81;100.00
10852;BME280;5479;52.046;6.314;2023-04-08T03:13:09;102253.34;;;2.85;100.00
10852;BME280;5479;52.046;6.314;2023-04-08T03:15:37;102256.78;;;2.90;100.00
10852;BME280;5479;52.046;6.314;2023-04-08T03:18:08;102248.91;;;2.94;100.00
10852;BME280;5479;52.046;6.314;2023-04-08T03:20:37;102263.78;;;2.94;100.00
10852;BME280;5479;52.046;6.314;2023-04-08T03:23:08;102256.78;;;2.90;100.00
10852;BME280;5479;52.046;6.314;2023-04-08T03:25:38;102254.19;;;2.87;100.00
10852;BME280;5479;52.046;6.314;2023-04-08T03:28:06;102255.94;;;2.88;100.00
10852;BME280;5479;52.046;6.314;2023-04-08T03:30:35;102259.44;;;2.85;100.00
10852;BME280;5479;52.046;6.314;2023-04-08T03:33:03;102257.69;;;2.89;100.00
10852;BME280;5479;52.046;6.314;2023-04-08T03:35:36;102262.03;;;2.84;100.00
10852;BME280;5479;52.046;6.314;2023-04-08T03:38:04;102263.81;;;2.80;100.00
10852;BME280;5479;52.046;6.314;2023-04-08T03:40:33;102264.66;;;2.84;100.00
10852;BME280;5479;52.046;6.314;2023-04-08T03:43:03;102258.56;;;2.85;100.00
10852;BME280;5479;52.046;6.314;2023-04-08T03:45:36;102259.44;;;2.85;100.00
10852;BME280;5479;52.046;6.314;2023-04-08T03:48:04;102264.66;;;2.84;100.00
10852;BME280;5479;52.046;6.314;2023-04-08T03:50:35;102262.91;;;2.87;100.00
10852;BME280;5479;52.046;6.314;2023-04-08T03:53:06;102266.41;;;2.88;100.00
10852;BME280;5479;52.046;6.314;2023-04-08T03:55:36;102264.69;;;2.81;100.00
10852;BME280;5479;52.046;6.314;2023-04-08T03:58:11;102273.41;;;2.83;100.00
10852;BME280;5479;52.046;6.314;2023-04-08T04:00:40;102272.50;;;2.90;100.00
10852;BME280;5479;52.046;6.314;2023-04-08T04:03:10;102274.25;;;2.91;100.00
10852;BME280;5479;52.046;6.314;2023-04-08T04:05:39;102279.47;;;2.94;100.00
10852;BME280;5479;52.046;6.314;2023-04-08T04:08:10;102284.75;;;2.83;100.00
10852;BME280;5479;52.046;6.314;2023-04-08T04:10:39;102287.31;;;2.91;100.00
10852;BME280;5479;52.046;6.314;2023-04-08T04:13:08;102281.25;;;2.81;100.00
10852;BME280;5479;52.046;6.314;2023-04-08T04:15:37;102286.47;;;2.87;100.00
10852;BME280;5479;52.046;6.314;2023-04-08T04:18:05;102285.63;;;2.79;100.00
10852;BME280;5479;52.046;6.314;2023-04-08T04:20:41;102284.75;;;2.83;100.00
10852;BME280;5479;52.046;6.314;2023-04-08T04:23:16;102286.50;;;2.80;100.00
10852;BME280;5479;52.046;6.314;2023-04-08T04:25:44;102286.50;;;2.83;100.00
10852;BME280;5479;52.046;6.314;2023-04-08T04:28:15;102294.38;;;2.71;100.00
10852;BME280;5479;52.046;6.314;2023-04-08T04:30:43;102294.41;;;2.62;100.00
10852;BME280;5479;52.046;6.314;2023-04-08T04:33:12;102297.88;;;2.64;100.00
10852;BME280;5479;52.046;6.314;2023-04-08T04:35:39;102294.41;;;2.56;100.00
10852;BME280;5479;52.046;6.314;2023-04-08T04:38:10;102299.63;;;2.60;100.00
10852;BME280;5479;52.046;6.314;2023-04-08T04:40:39;102305.72;;;2.62;100.00
10852;BME280;5479;52.046;6.314;2023-04-08T04:43:10;102310.09;;;2.62;100.00
10852;BME280;5479;52.046;6.314;2023-04-08T04:45:42;102305.72;;;2.65;100.00
10852;BME280;5479;52.046;6.314;2023-04-08T04:48:11;102317.94;;;2.62;100.00
10852;BME280;5479;52.046;6.314;2023-04-08T04:50:39;102311.88;;;2.57;100.00
10852;BME280;5479;52.046;6.314;2023-04-08T04:53:19;102318.81;;;2.55;100.00
10852;BME280;5479;52.046;6.314;2023-04-08T04:55:51;102306.63;;;2.57;100.00
10852;BME280;5479;52.046;6.314;2023-04-08T04:58:23;102314.47;;;2.52;100.00
10852;BME280;5479;52.046;6.314;2023-04-08T05:00:54;102312.72;;;2.65;100.00
10852;BME280;5479;52.046;6.314;2023-04-08T05:03:24;102311.84;;;2.61;100.00
10852;BME280;5479;52.046;6.314;2023-04-08T05:05:52;102318.81;;;2.58;100.00
10852;BME280;5479;52.046;6.314;2023-04-08T05:08:21;102324.03;;;2.52;100.00
10852;BME280;5479;52.046;6.314;2023-04-08T05:10:50;102317.97;;;2.51;100.00
10852;BME280;5479;52.046;6.314;2023-04-08T05:13:20;102326.66;;;2.52;100.00
10852;BME280;5479;52.046;6.314;2023-04-08T05:15:58;102326.69;;;2.50;100.00
10852;BME280;5479;52.046;6.314;2023-04-08T05:18:30;102328.44;;;2.54;100.00
10852;BME280;5479;52.046;6.314;2023-04-08T05:20:59;102337.97;;;2.66;100.00
10852;BME280;5479;52.046;6.314;2023-04-08T05:23:27;102332.75;;;2.60;100.00
10852;BME280;5479;52.046;6.314;2023-04-08T05:25:57;102341.44;;;2.68;100.00
10852;BME280;5479;52.046;6.314;2023-04-08T05:28:26;102344.94;;;2.74;100.00
10852;BME280;5479;52.046;6.314;2023-04-08T05:30:54;102343.19;;;2.75;100.00
10852;BME280;5479;52.046;6.314;2023-04-08T05:33:22;102347.56;;;2.73;100.00
10852;BME280;5479;52.046;6.314;2023-04-08T05:35:52;102350.19;;;2.64;100.00
10852;BME280;5479;52.046;6.314;2023-04-08T05:38:20;102339.72;;;2.58;100.00
10852;BME280;5479;52.046;6.314;2023-04-08T05:40:48;102344.97;;;2.61;100.00
10852;BME280;5479;52.046;6.314;2023-04-08T05:43:22;102345.88;;;2.57;100.00
10852;BME280;5479;52.046;6.314;2023-04-08T05:45:50;102351.94;;;2.56;100.00
10852;BME280;5479;52.046;6.314;2023-04-08T05:48:18;102354.53;;;2.74;100.00
10852;BME280;5479;52.046;6.314;2023-04-08T05:50:49;102347.56;;;2.68;100.00
10852;BME280;5479;52.046;6.314;2023-04-08T05:53:17;102356.28;;;2.66;100.00
10852;BME280;5479;52.046;6.314;2023-04-08T05:55:45;102357.13;;;2.68;100.00
10852;BME280;5479;52.046;6.314;2023-04-08T05:58:13;102364.13;;;2.69;100.00
10852;BME280;5479;52.046;6.314;2023-04-08T06:00:43;102364.16;;;2.67;100.00
10852;BME280;5479;52.046;6.314;2023-04-08T06:03:11;102371.97;;;2.75;100.00
10852;BME280;5479;52.046;6.314;2023-04-08T06:05:43;102368.44;;;2.88;100.00
10852;BME280;5479;52.046;6.314;2023-04-08T06:08:11;102364.94;;;2.87;100.00
10852;BME280;5479;52.046;6.314;2023-04-08T06:10:39;102371.91;;;2.94;100.00
10852;BME280;5479;52.046;6.314;2023-04-08T06:13:07;102378.00;;;3.04;100.00
10852;BME280;5479;52.046;6.314;2023-04-08T06:15:35;102381.47;;;3.09;100.00
10852;BME280;5479;52.046;6.314;2023-04-08T06:18:05;102377.91;;;3.28;100.00
10852;BME280;5479;52.046;6.314;2023-04-08T06:20:34;102383.97;;;3.36;100.00
10852;BME280;5479;52.046;6.314;2023-04-08T06:23:02;102376.03;;;3.54;100.00
10852;BME280;5479;52.046;6.314;2023-04-08T06:25:33;102383.75;;;3.73;100.00
10852;BME280;5479;52.046;6.314;2023-04-08T06:28:01;102385.50;;;3.75;100.00
10852;BME280;5479;52.046;6.314;2023-04-08T06:30:29;102391.47;;;3.97;100.00
10852;BME280;5479;52.046;6.314;2023-04-08T06:32:58;102386.91;;;4.20;100.00
10852;BME280;5479;52.046;6.314;2023-04-08T06:35:29;102393.75;;;4.44;100.00
10852;BME280;5479;52.046;6.314;2023-04-08T06:37:59;102392.75;;;4.55;100.00
10852;BME280;5479;52.046;6.314;2023-04-08T06:40:27;102393.63;;;4.56;100.00
10852;BME280;5479;52.046;6.314;2023-04-08T06:43:00;102405.97;;;4.46;100.00
10852;BME280;5479;52.046;6.314;2023-04-08T06:45:28;102415.63;;;4.41;100.00
10852;BME280;5479;52.046;6.314;2023-04-08T06:47:56;102417.28;;;4.51;100.00
10852;BME280;5479;52.046;6.314;2023-04-08T06:50:25;102416.34;;;4.55;100.00
10852;BME280;5479;52.046;6.314;2023-04-08T06:52:59;102422.53;;;4.50;100.00
10852;BME280;5479;52.046;6.314;2023-04-08T06:55:27;102425.13;;;4.54;100.00
10852;BME280;5479;52.046;6.314;2023-04-08T06:57:57;102431.06;;;4.74;100.00
10852;BME280;5479;52.046;6.314;2023-04-08T07:00:27;102423.13;;;4.80;100.00
10852;BME280;5479;52.046;6.314;2023-04-08T07:03:07;102422.03;;;5.01;100.00
10852;BME280;5479;52.046;6.314;2023-04-08T07:05:37;102422.72;;;5.17;100.00
10852;BME280;5479;52.046;6.314;2023-04-08T07:08:08;102427.66;;;5.44;100.00
10852;BME280;5479;52.046;6.314;2023-04-08T07:10:35;102423.88;;;5.65;100.00
10852;BME280;5479;52.046;6.314;2023-04-08T07:13:04;102430.56;;;5.91;100.00
10852;BME280;5479;52.046;6.314;2023-04-08T07:15:33;102420.72;;;6.05;100.00
10852;BME280;5479;52.046;6.314;2023-04-08T07:18:01;102423.13;;;6.19;100.00
10852;BME280;5479;52.046;6.314;2023-04-08T07:20:30;102429.50;;;6.04;100.00
10852;BME280;5479;52.046;6.314;2023-04-08T07:22:58;102441.28;;;6.36;100.00
10852;BME280;5479;52.046;6.314;2023-04-08T07:25:32;102434.66;;;6.65;100.00
10852;BME280;5479;52.046;6.314;2023-04-08T07:28:00;102440.84;;;6.61;100.00
10852;BME280;5479;52.046;6.314;2023-04-08T07:30:28;102448.31;;;6.87;100.00
10852;BME280;5479;52.046;6.314;2023-04-08T07:33:01;102443.22;;;6.25;100.00
10852;BME280;5479;52.046;6.314;2023-04-08T07:35:30;102447.03;;;6.60;100.00
10852;BME280;5479;52.046;6.314;2023-04-08T07:37:58;102450.00;;;6.91;100.00
10852;BME280;5479;52.046;6.314;2023-04-08T07:40:26;102451.50;;;7.04;100.00
10852;BME280;5479;52.046;6.314;2023-04-08T07:42:58;102451.97;;;7.27;100.00
10852;BME280;5479;52.046;6.314;2023-04-08T07:45:26;102461.78;;;8.02;100.00
10852;BME280;5479;52.046;6.314;2023-04-08T07:47:54;102460.28;;;8.99;100.00
10852;BME280;5479;52.046;6.314;2023-04-08T07:50:25;102454.41;;;10.65;100.00
10852;BME280;5479;52.046;6.314;2023-04-08T07:52:54;102446.22;;;12.17;100.00
10852;BME280;5479;52.046;6.314;2023-04-08T07:55:23;102443.97;;;12.49;100.00
10852;BME280;5479;52.046;6.314;2023-04-08T07:57:51;102441.72;;;13.02;100.00
10852;BME280;5479;52.046;6.314;2023-04-08T08:00:22;102445.84;;;13.87;100.00
10852;BME280;5479;52.046;6.314;2023-04-08T08:02:51;102440.09;;;14.50;92.56
10852;BME280;5479;52.046;6.314;2023-04-08T08:05:20;102433.22;;;14.46;83.48
10852;BME280;5479;52.046;6.314;2023-04-08T08:07:48;102431.59;;;14.78;84.36
10852;BME280;5479;52.046;6.314;2023-04-08T08:10:16;102434.59;;;14.36;80.31
10852;BME280;5479;52.046;6.314;2023-04-08T08:12:46;102444.00;;;15.46;80.18
10852;BME280;5479;52.046;6.314;2023-04-08T08:15:15;102446.38;;;15.68;73.56
10852;BME280;5479;52.046;6.314;2023-04-08T08:17:44;102448.03;;;15.03;75.10
10852;BME280;5479;52.046;6.314;2023-04-08T08:20:15;102453.75;;;14.07;79.85
10852;BME280;5479;52.046;6.314;2023-04-08T08:22:43;102453.28;;;13.01;89.82
10852;BME280;5479;52.046;6.314;2023-04-08T08:25:12;102458.25;;;13.10;97.56
10852;BME280;5479;52.046;6.314;2023-04-08T08:27:40;102458.31;;;12.45;100.00
10852;BME280;5479;52.046;6.314;2023-04-08T08:30:08;102460.91;;;12.89;100.00
10852;BME280;5479;52.046;6.314;2023-04-08T08:32:37;102468.69;;;13.54;92.33
10852;BME280;5479;52.046;6.314;2023-04-08T08:35:09;102450.59;;;14.18;87.86
10852;BME280;5479;52.046;6.314;2023-04-08T08:37:37;102464.78;;;14.90;84.71
10852;BME280;5479;52.046;6.314;2023-04-08T08:40:06;102461.25;;;16.05;76.24
10852;BME280;5479;52.046;6.314;2023-04-08T08:42:35;102460.53;;;16.94;67.90
10852;BME280;5479;52.046;6.314;2023-04-08T08:45:04;102460.84;;;17.03;63.99
10852;BME280;5479;52.046;6.314;2023-04-08T08:47:33;102452.13;;;16.56;64.07
10852;BME280;5479;52.046;6.314;2023-04-08T08:50:01;102452.78;;;16.44;65.08
10852;BME280;5479;52.046;6.314;2023-04-08T08:52:34;102458.06;;;17.05;59.86
10852;BME280;5479;52.046;6.314;2023-04-08T08:55:02;102460.44;;;16.65;61.53
10852;BME280;5479;52.046;6.314;2023-04-08T08:57:30;102461.25;;;16.20;62.66
10852;BME280;5479;52.046;6.314;2023-04-08T08:59:58;102463.16;;;12.98;79.00
10852;BME280;5479;52.046;6.314;2023-04-08T09:02:28;102471.03;;;12.37;98.84
10852;BME280;5479;52.046;6.314;2023-04-08T09:04:58;102468.56;;;13.94;89.08
10852;BME280;5479;52.046;6.314;2023-04-08T09:07:27;102469.69;;;15.15;75.11
10852;BME280;5479;52.046;6.314;2023-04-08T09:09:57;102474.31;;;14.60;73.44
10852;BME280;5479;52.046;6.314;2023-04-08T09:12:26;102471.16;;;14.52;78.44
10852;BME280;5479;52.046;6.314;2023-04-08T09:15:04;102469.00;;;15.11;76.21
10852;BME280;5479;52.046;6.314;2023-04-08T09:17:35;102473.38;;;15.46;67.15
10852;BME280;5479;52.046;6.314;2023-04-08T09:20:05;102473.09;;;15.68;67.88
10852;BME280;5479;52.046;6.314;2023-04-08T09:22:57;102467.28;;;16.08;64.44
10852;BME280;5479;52.046;6.314;2023-04-08T09:25:29;102473.44;;;15.62;64.69
10852;BME280;5479;52.046;6.314;2023-04-08T09:28:00;102477.63;;;15.16;62.63
10852;BME280;5479;52.046;6.314;2023-04-08T09:30:31;102486.19;;;13.59;71.39
10852;BME280;5479;52.046;6.314;2023-04-08T09:32:59;102486.34;;;13.36;73.96
10852;BME280;5479;52.046;6.314;2023-04-08T09:35:33;102485.19;;;13.01;76.17
10852;BME280;5479;52.046;6.314;2023-04-08T09:38:02;102492.38;;;12.13;88.61
10852;BME280;5479;52.046;6.314;2023-04-08T09:40:33;102490.31;;;12.21;88.33
10852;BME280;5479;52.046;6.314;2023-04-08T09:43:04;102494.81;;;12.19;100.00
10852;BME280;5479;52.046;6.314;2023-04-08T09:45:33;102495.72;;;12.83;87.61
10852;BME280;5479;52.046;6.314;2023-04-08T09:48:07;102490.16;;;13.10;87.94
10852;BME280;5479;52.046;6.314;2023-04-08T09:50:42;102492.66;;;13.34;81.68
10852;BME280;5479;52.046;6.314;2023-04-08T09:53:16;102487.41;;;13.52;81.51
10852;BME280;5479;52.046;6.314;2023-04-08T09:55:50;102487.72;;;14.39;76.24
10852;BME280;5479;52.046;6.314;2023-04-08T09:58:21;102492.50;;;14.33;73.93
10852;BME280;5479;52.046;6.314;2023-04-08T10:00:53;102488.59;;;14.03;71.97
10852;BME280;5479;52.046;6.314;2023-04-08T10:03:26;102488.56;;;13.65;74.83
10852;BME280;5479;52.046;6.314;2023-04-08T10:05:55;102488.63;;;13.45;72.31
10852;BME280;5479;52.046;6.314;2023-04-08T10:08:23;102487.75;;;13.24;72.37
10852;BME280;5479;52.046;6.314;2023-04-08T10:10:54;102489.50;;;12.84;79.51
10852;BME280;5479;52.046;6.314;2023-04-08T10:13:24;102503.56;;;12.44;80.23
10852;BME280;5479;52.046;6.314;2023-04-08T10:16:17;102494.16;;;12.35;84.78
10852;BME280;5479;52.046;6.314;2023-04-08T10:18:46;102493.31;;;12.77;75.57
10852;BME280;5479;52.046;6.314;2023-04-08T10:21:34;102480.66;;;12.83;75.22
10852;BME280;5479;52.046;6.314;2023-04-08T10:24:06;102482.34;;;12.84;80.51
10852;BME280;5479;52.046;6.314;2023-04-08T10:26:40;102482.31;;;13.07;79.18
10852;BME280;5479;52.046;6.314;2023-04-08T10:29:30;102496.81;;;12.99;77.93
10852;BME280;5479;52.046;6.314;2023-04-08T10:31:58;102486.84;;;13.04;81.34
10852;BME280;5479;52.046;6.314;2023-04-08T10:34:28;102490.34;;;13.26;76.56
10852;BME280;5479;52.046;6.314;2023-04-08T10:36:56;102495.03;;;13.60;78.14
10852;BME280;5479;52.046;6.314;2023-04-08T10:39:27;102484.00;;;14.25;71.26
10852;BME280;5479;52.046;6.314;2023-04-08T10:41:56;102472.75;;;14.18;70.54
10852;BME280;5479;52.046;6.314;2023-04-08T10:44:25;102475.75;;;13.55;83.72
10852;BME280;5479;52.046;6.314;2023-04-08T10:46:53;102473.81;;;13.58;82.68
10852;BME280;5479;52.046;6.314;2023-04-08T10:49:21;102480.16;;;13.36;78.29
10852;BME280;5479;52.046;6.314;2023-04-08T10:51:58;102495.59;;;13.48;79.11
10852;BME280;5479;52.046;6.314;2023-04-08T10:54:27;102489.88;;;13.16;83.36
10852;BME280;5479;52.046;6.314;2023-04-08T10:56:54;102495.50;;;12.89;89.02
10852;BME280;5479;52.046;6.314;2023-04-08T10:59:30;102486.09;;;12.80;90.44
10852;BME280;5479;52.046;6.314;2023-04-08T11:01:58;102492.88;;;12.87;90.92
10852;BME280;5479;52.046;6.314;2023-04-08T11:04:27;102493.53;;;12.72;93.32
10852;BME280;5479;52.046;6.314;2023-04-08T11:06:55;102490.84;;;12.52;90.19
10852;BME280;5479;52.046;6.314;2023-04-08T11:09:23;102491.91;;;12.03;95.99
10852;BME280;5479;52.046;6.314;2023-04-08T11:11:52;102483.66;;;12.54;96.59
10852;BME280;5479;52.046;6.314;2023-04-08T11:14:20;102475.03;;;13.11;92.70
10852;BME280;5479;52.046;6.314;2023-04-08T11:16:52;102478.56;;;13.32;84.79
10852;BME280;5479;52.046;6.314;2023-04-08T11:19:20;102473.78;;;13.19;84.47
10852;BME280;5479;52.046;6.314;2023-04-08T11:21:49;102481.25;;;12.90;86.78
10852;BME280;5479;52.046;6.314;2023-04-08T11:24:18;102476.31;;;12.81;86.68
10852;BME280;5479;52.046;6.314;2023-04-08T11:26:48;102479.88;;;12.38;98.09
10852;BME280;5479;52.046;6.314;2023-04-08T11:29:15;102474.94;;;12.92;87.44
10852;BME280;5479;52.046;6.314;2023-04-08T11:31:43;102465.91;;;12.96;90.19
10852;BME280;5479;52.046;6.314;2023-04-08T11:34:21;102474.78;;;12.75;95.15
10852;BME280;5479;52.046;6.314;2023-04-08T11:36:49;102472.78;;;13.22;86.56
10852;BME280;5479;52.046;6.314;2023-04-08T11:39:21;102478.28;;;13.38;87.63
10852;BME280;5479;52.046;6.314;2023-04-08T11:41:49;102473.59;;;13.63;82.96
10852;BME280;5479;52.046;6.314;2023-04-08T11:44:17;102463.66;;;13.48;84.81
10852;BME280;5479;52.046;6.314;2023-04-08T11:46:51;102466.88;;;13.74;81.82
10852;BME280;5479;52.046;6.314;2023-04-08T11:49:23;102463.09;;;14.34;84.61
10852;BME280;5479;52.046;6.314;2023-04-08T11:51:55;102464.72;;;15.58;74.85
10852;BME280;5479;52.046;6.314;2023-04-08T11:54:27;102470.16;;;15.23;73.25
10852;BME280;5479;52.046;6.314;2023-04-08T11:56:55;102476.63;;;14.48;76.10
10852;BME280;5479;52.046;6.314;2023-04-08T11:59:24;102480.13;;;12.95;90.19
10852;BME280;5479;52.046;6.314;2023-04-08T12:01:52;102488.25;;;13.53;87.65
10852;BME280;5479;52.046;6.314;2023-04-08T12:04:20;102478.94;;;13.63;85.82
10852;BME280;5479;52.046;6.314;2023-04-08T12:06:49;102482.81;;;13.56;86.20
10852;BME280;5479;52.046;6.314;2023-04-08T12:09:17;102482.22;;;13.49;79.97
10852;BME280;5479;52.046;6.314;2023-04-08T12:11:46;102485.06;;;13.24;77.09
10852;BME280;5479;52.046;6.314;2023-04-08T12:14:14;102484.53;;;13.16;72.46
10852;BME280;5479;52.046;6.314;2023-04-08T12:16:42;102477.34;;;12.98;71.57
10852;BME280;5479;52.046;6.314;2023-04-08T12:19:10;102479.94;;;13.00;73.80
10852;BME280;5479;52.046;6.314;2023-04-08T12:21:38;102473.81;;;12.98;76.43
10852;BME280;5479;52.046;6.314;2023-04-08T12:24:07;102478.66;;;12.88;79.62
10852;BME280;5479;52.046;6.314;2023-04-08T12:26:35;102472.94;;;12.77;82.07
10852;BME280;5479;52.046;6.314;2023-04-08T12:29:03;102481.56;;;12.82;83.07
10852;BME280;5479;52.046;6.314;2023-04-08T12:31:30;102475.78;;;13.14;81.87
10852;BME280;5479;52.046;6.314;2023-04-08T12:33:58;102484.25;;;13.63;79.49
10852;BME280;5479;52.046;6.314;2023-04-08T12:36:27;102465.41;;;14.05;78.79
10852;BME280;5479;52.046;6.314;2023-04-08T12:38:57;102471.47;;;13.89;76.45
10852;BME280;5479;52.046;6.314;2023-04-08T12:41:26;102466.41;;;13.83;77.51
10852;BME280;5479;52.046;6.314;2023-04-08T12:43:54;102477.56;;;13.73;75.31
10852;BME280;5479;52.046;6.314;2023-04-08T12:46:22;102478.28;;;13.58;79.23
10852;BME280;5479;52.046;6.314;2023-04-08T12:48:49;102475.66;;;13.56;78.75
10852;BME280;5479;52.046;6.314;2023-04-08T12:51:17;102480.34;;;13.51;79.20
10852;BME280;5479;52.046;6.314;2023-04-08T12:53:45;102481.25;;;13.89;80.08
10852;BME280;5479;52.046;6.314;2023-04-08T12:56:14;102476.38;;;14.17;78.78
10852;BME280;5479;52.046;6.314;2023-04-08T12:58:43;102475.41;;;14.37;78.32
10852;BME280;5479;52.046;6.314;2023-04-08T13:01:17;102475.91;;;14.26;79.19
10852;BME280;5479;52.046;6.314;2023-04-08T13:03:46;102474.06;;;14.10;78.81
10852;BME280;5479;52.046;6.314;2023-04-08T13:06:14;102468.28;;;14.19;77.70
10852;BME280;5479;52.046;6.314;2023-04-08T13:08:42;102465.56;;;14.20;79.40
10852;BME280;5479;52.046;6.314;2023-04-08T13:11:10;102467.66;;;14.32;80.56
10852;BME280;5479;52.046;6.314;2023-04-08T13:13:38;102457.22;;;14.09;82.37
10852;BME280;5479;52.046;6.314;2023-04-08T13:16:08;102462.97;;;14.00;79.92